createdAt,value
2017-08-23T00:02:01.299Z,12.10
2017-08-23T00:04:29.411Z,12.10
2017-08-23T00:06:57.553Z,12.20
2017-08-23T00:09:29.409Z,12.20
2017-08-23T00:11:58.613Z,12.00
2017-08-23T00:14:34.454Z,12.00
2017-08-23T00:17:02.681Z,12.00
2017-08-23T00:19:30.805Z,11.90
2017-08-23T00:22:02.071Z,11.90
2017-08-23T00:24:30.312Z,11.90
2017-08-23T00:26:58.450Z,11.90
2017-08-23T00:29:26.694Z,11.90
2017-08-23T00:31:54.811Z,11.80
2017-08-23T00:34:22.955Z,11.70
2017-08-23T00:36:51.066Z,11.70
2017-08-23T00:39:19.251Z,11.70
2017-08-23T00:41:51.822Z,11.70
2017-08-23T00:44:19.995Z,11.70
2017-08-23T00:46:51.676Z,11.70
2017-08-23T00:49:20.718Z,11.60
2017-08-23T00:51:48.870Z,11.60
2017-08-23T00:54:17.986Z,11.60
2017-08-23T00:56:46.122Z,11.60
2017-08-23T00:59:35.922Z,11.60
2017-08-23T01:02:04.127Z,11.60
2017-08-23T01:04:32.271Z,11.50
2017-08-23T01:07:04.531Z,11.50
2017-08-23T01:09:32.627Z,11.50
2017-08-23T01:12:00.760Z,11.50
2017-08-23T01:14:28.890Z,11.50
2017-08-23T01:16:57.024Z,11.50
2017-08-23T01:22:25.014Z,11.50
2017-08-23T01:24:58.818Z,11.40
2017-08-23T01:27:27.471Z,11.40
2017-08-23T01:30:00.953Z,11.40
2017-08-23T01:32:29.124Z,11.40
2017-08-23T01:34:57.930Z,11.40
2017-08-23T01:37:26.027Z,11.40
2017-08-23T01:39:55.365Z,11.40
2017-08-23T01:42:25.572Z,11.40
2017-08-23T01:44:53.714Z,11.40
2017-08-23T01:47:21.810Z,11.40
2017-08-23T01:49:50.030Z,11.40
2017-08-23T01:52:18.185Z,11.40
2017-08-23T01:54:46.340Z,11.40
2017-08-23T01:57:18.268Z,11.30
2017-08-23T01:59:46.436Z,11.30
2017-08-23T02:02:19.759Z,11.30
2017-08-23T02:04:48.033Z,11.20
2017-08-23T02:07:16.182Z,11.20
2017-08-23T02:09:46.267Z,11.20
2017-08-23T02:12:14.447Z,11.20
2017-08-23T02:14:42.585Z,11.10
2017-08-23T02:17:12.624Z,11.10
2017-08-23T02:19:40.751Z,11.10
2017-08-23T02:22:08.983Z,11.10
2017-08-23T02:24:37.171Z,11.10
2017-08-23T02:27:05.326Z,11.10
2017-08-23T02:29:33.446Z,11.20
2017-08-23T02:32:06.818Z,11.20
2017-08-23T02:34:34.967Z,11.10
2017-08-23T02:37:07.210Z,11.10
2017-08-23T02:39:35.348Z,11.10
2017-08-23T02:42:03.609Z,11.10
2017-08-23T02:44:31.845Z,11.00
2017-08-23T02:47:00.067Z,11.10
2017-08-23T02:49:29.107Z,11.00
2017-08-23T02:54:41.640Z,11.00
2017-08-23T02:57:09.775Z,11.00
2017-08-23T02:59:37.911Z,11.00
2017-08-23T03:02:06.105Z,10.90
2017-08-23T03:04:34.272Z,10.90
2017-08-23T03:07:02.413Z,10.90
2017-08-23T03:09:30.875Z,10.90
2017-08-23T03:11:59.085Z,10.90
2017-08-23T03:14:27.182Z,10.90
2017-08-23T03:16:55.293Z,10.80
2017-08-23T03:19:23.415Z,10.80
2017-08-23T03:21:51.593Z,10.70
2017-08-23T03:24:38.902Z,10.70
2017-08-23T03:27:08.086Z,10.70
2017-08-23T03:29:36.374Z,10.60
2017-08-23T03:32:04.532Z,10.60
2017-08-23T03:34:52.160Z,10.60
2017-08-23T03:37:30.981Z,10.60
2017-08-23T03:39:59.162Z,10.60
2017-08-23T03:42:27.315Z,10.50
2017-08-23T03:44:58.837Z,10.50
2017-08-23T03:47:56.254Z,10.50
2017-08-23T03:50:42.842Z,10.50
2017-08-23T03:53:10.988Z,10.50
2017-08-23T03:55:39.117Z,10.50
2017-08-23T03:58:07.419Z,10.40
2017-08-23T04:00:37.573Z,10.40
2017-08-23T04:06:04.645Z,10.40
2017-08-23T04:08:32.865Z,10.40
2017-08-23T04:11:03.013Z,10.40
2017-08-23T04:13:51.249Z,10.40
2017-08-23T04:16:20.189Z,10.40
2017-08-23T04:18:49.182Z,10.50
2017-08-23T04:21:18.128Z,10.40
2017-08-23T04:23:52.213Z,10.50
2017-08-23T04:26:20.402Z,10.50
2017-08-23T04:28:48.535Z,10.50
2017-08-23T04:31:17.358Z,10.50
2017-08-23T04:33:46.560Z,10.50
2017-08-23T04:36:25.222Z,10.50
2017-08-23T04:39:01.225Z,10.60
2017-08-23T04:41:32.483Z,10.60
2017-08-23T04:44:03.953Z,10.60
2017-08-23T04:46:38.467Z,10.70
2017-08-23T04:49:08.686Z,10.70
2017-08-23T04:51:40.633Z,10.70
2017-08-23T04:54:09.990Z,10.70
2017-08-23T04:56:39.430Z,10.80
2017-08-23T04:59:07.616Z,10.80
2017-08-23T05:01:35.813Z,10.80
2017-08-23T05:04:09.817Z,10.90
2017-08-23T05:06:40.042Z,11.00
2017-08-23T05:09:09.034Z,11.10
2017-08-23T05:11:37.183Z,11.00
2017-08-23T05:14:18.518Z,11.10
2017-08-23T05:16:46.782Z,11.10
2017-08-23T05:19:15.142Z,11.10
2017-08-23T05:21:43.397Z,11.20
2017-08-23T05:24:11.543Z,11.20
2017-08-23T05:26:39.686Z,11.30
2017-08-23T05:29:18.513Z,11.30
2017-08-23T05:31:46.674Z,11.40
2017-08-23T05:34:15.746Z,11.40
2017-08-23T05:36:43.919Z,11.40
2017-08-23T05:39:12.112Z,11.50
2017-08-23T05:41:47.230Z,11.60
2017-08-23T05:44:20.230Z,11.70
2017-08-23T05:46:56.683Z,11.80
2017-08-23T05:49:24.919Z,12.00
2017-08-23T05:51:53.059Z,12.10
2017-08-23T05:54:25.575Z,12.10
2017-08-23T05:56:53.898Z,12.10
2017-08-23T05:59:22.089Z,12.10
2017-08-23T06:01:50.240Z,12.20
2017-08-23T06:04:18.614Z,12.30
2017-08-23T06:06:46.752Z,12.30
2017-08-23T06:09:19.019Z,12.40
2017-08-23T06:11:48.230Z,12.50
2017-08-23T06:14:16.466Z,12.60
2017-08-23T06:16:44.607Z,12.60
2017-08-23T06:19:12.853Z,12.70
2017-08-23T06:21:41.016Z,12.80
2017-08-23T06:24:09.270Z,12.90
2017-08-23T06:26:37.439Z,12.90
2017-08-23T06:29:05.700Z,13.00
2017-08-23T06:31:33.968Z,13.00
2017-08-23T06:34:02.093Z,13.10
2017-08-23T06:36:30.270Z,13.20
2017-08-23T06:39:11.691Z,13.30
2017-08-23T06:41:39.872Z,13.40
2017-08-23T06:44:08.083Z,13.40
2017-08-23T06:46:43.172Z,13.50
2017-08-23T06:49:11.467Z,13.50
2017-08-23T06:51:39.600Z,13.50
2017-08-23T06:54:10.850Z,13.60
2017-08-23T06:56:39.072Z,13.60
2017-08-23T06:59:07.238Z,13.70
2017-08-23T07:01:35.404Z,13.70
2017-08-23T07:04:03.549Z,13.80
2017-08-23T07:06:31.816Z,14.00
2017-08-23T07:09:19.277Z,14.10
2017-08-23T07:11:47.402Z,14.10
2017-08-23T07:14:15.595Z,14.20
2017-08-23T07:16:43.860Z,14.30
2017-08-23T07:19:12.091Z,14.40
2017-08-23T07:21:41.157Z,14.50
2017-08-23T07:24:11.341Z,14.50
2017-08-23T07:26:39.475Z,14.60
2017-08-23T07:29:07.651Z,14.70
2017-08-23T07:31:35.776Z,14.80
2017-08-23T07:34:03.948Z,14.90
2017-08-23T07:36:32.138Z,15.00
2017-08-23T07:39:00.871Z,15.00
2017-08-23T07:41:29.206Z,15.10
2017-08-23T07:43:57.390Z,15.10
2017-08-23T07:46:27.448Z,15.20
2017-08-23T07:48:55.728Z,15.30
2017-08-23T07:51:23.920Z,15.30
2017-08-23T07:56:51.635Z,15.40
2017-08-23T07:59:19.822Z,15.50
2017-08-23T08:01:53.753Z,15.50
2017-08-23T08:04:24.111Z,15.60
2017-08-23T08:06:52.247Z,15.60
2017-08-23T08:09:20.400Z,15.70
2017-08-23T08:11:52.577Z,15.70
2017-08-23T08:14:20.882Z,15.70
2017-08-23T08:16:49.174Z,15.80
2017-08-23T08:19:19.786Z,15.80
2017-08-23T08:21:57.405Z,15.80
2017-08-23T08:24:27.404Z,15.90
2017-08-23T08:26:55.715Z,16.00
2017-08-23T08:29:23.985Z,16.00
2017-08-23T08:31:56.556Z,16.00
2017-08-23T08:34:30.386Z,16.00
2017-08-23T08:36:58.523Z,16.10
2017-08-23T08:42:11.605Z,16.10
2017-08-23T08:44:39.768Z,16.20
2017-08-23T08:47:11.667Z,16.30
2017-08-23T08:49:40.542Z,16.30
2017-08-23T08:52:08.694Z,16.30
2017-08-23T08:54:36.845Z,16.40
2017-08-23T08:57:05.050Z,16.40
2017-08-23T09:02:20.836Z,16.50
2017-08-23T09:04:49.099Z,16.50
2017-08-23T09:07:17.366Z,16.60
2017-08-23T09:09:45.562Z,16.60
2017-08-23T09:12:13.674Z,16.80
2017-08-23T09:14:41.845Z,16.80
2017-08-23T09:17:10.069Z,16.80
2017-08-23T09:19:38.240Z,16.90
2017-08-23T09:22:06.575Z,16.90
2017-08-23T09:24:34.770Z,16.90
2017-08-23T09:27:02.949Z,17.00
2017-08-23T09:29:31.178Z,17.00
2017-08-23T09:31:59.391Z,17.10
2017-08-23T09:34:27.629Z,17.10
2017-08-23T09:36:56.020Z,17.20
2017-08-23T09:41:56.985Z,17.30
2017-08-23T09:44:32.437Z,17.30
2017-08-23T09:47:01.781Z,17.40
2017-08-23T09:49:33.490Z,17.40
2017-08-23T09:52:04.015Z,17.50
2017-08-23T09:54:33.445Z,17.60
2017-08-23T09:57:01.597Z,17.70
2017-08-23T09:59:29.853Z,17.70
2017-08-23T10:01:58.209Z,17.70
2017-08-23T10:04:27.140Z,17.70
2017-08-23T10:06:55.372Z,17.70
2017-08-23T10:09:25.714Z,17.80
2017-08-23T10:11:53.947Z,17.80
2017-08-23T10:14:22.181Z,17.90
2017-08-23T10:16:50.381Z,17.90
2017-08-23T10:19:25.647Z,18.00
2017-08-23T10:21:54.871Z,18.00
2017-08-23T10:24:23.046Z,18.00
2017-08-23T10:26:55.752Z,18.10
2017-08-23T10:29:25.940Z,18.20
2017-08-23T10:31:54.123Z,18.20
2017-08-23T10:34:22.503Z,18.20
2017-08-23T10:36:55.042Z,18.20
2017-08-23T10:39:23.379Z,18.20
2017-08-23T10:41:51.589Z,18.30
2017-08-23T10:44:23.531Z,18.30
2017-08-23T10:46:51.629Z,18.40
2017-08-23T10:49:23.762Z,18.40
2017-08-23T10:52:04.421Z,18.40
2017-08-23T10:54:32.732Z,18.50
2017-08-23T10:57:00.921Z,18.50
2017-08-23T10:59:33.094Z,18.50
2017-08-23T11:02:02.337Z,18.50
2017-08-23T11:09:50.854Z,18.80
2017-08-23T11:12:19.089Z,18.90
2017-08-23T11:17:42.421Z,18.90
2017-08-23T11:20:11.239Z,18.90
2017-08-23T11:22:39.468Z,18.90
2017-08-23T11:25:08.849Z,18.90
2017-08-23T11:27:37.166Z,19.00
2017-08-23T11:33:17.114Z,19.10
2017-08-23T11:35:46.171Z,19.10
2017-08-23T11:38:16.879Z,19.20
2017-08-23T11:40:45.060Z,19.30
2017-08-23T11:43:15.770Z,19.40
2017-08-23T11:45:44.150Z,19.40
2017-08-23T11:48:14.299Z,19.50
2017-08-23T11:50:43.362Z,19.60
2017-08-23T11:53:12.020Z,19.60
2017-08-23T11:55:44.654Z,19.70
2017-08-23T12:01:23.821Z,19.80
2017-08-23T12:03:55.756Z,19.80
2017-08-23T12:06:23.961Z,19.80
2017-08-23T12:08:55.441Z,19.90
2017-08-23T12:11:23.607Z,19.90
2017-08-23T12:13:55.708Z,19.90
2017-08-23T12:16:28.536Z,20.00
2017-08-23T12:19:01.534Z,20.00
2017-08-23T12:21:29.705Z,20.00
2017-08-23T12:24:04.697Z,20.10
2017-08-23T12:26:33.460Z,20.00
2017-08-23T12:29:01.726Z,20.00
2017-08-23T12:31:49.204Z,20.00
2017-08-23T12:34:25.627Z,20.00
2017-08-23T12:36:54.637Z,20.00
2017-08-23T12:39:22.809Z,20.10
2017-08-23T12:41:51.023Z,20.10
2017-08-23T12:44:19.372Z,20.10
2017-08-23T12:46:47.773Z,20.10
2017-08-23T12:49:15.992Z,20.10
2017-08-23T12:54:50.789Z,20.10
2017-08-23T12:57:19.536Z,20.10
2017-08-23T13:02:43.159Z,20.20
2017-08-23T13:05:12.267Z,20.20
2017-08-23T13:07:46.952Z,20.20
2017-08-23T13:10:15.592Z,20.30
2017-08-23T13:12:43.799Z,20.30
2017-08-23T13:15:14.033Z,20.40
2017-08-23T13:17:42.185Z,20.40
2017-08-23T13:20:10.451Z,20.40
2017-08-23T13:22:39.078Z,20.40
2017-08-23T13:25:07.318Z,20.50
2017-08-23T13:27:35.458Z,20.50
2017-08-23T13:32:44.875Z,20.60
2017-08-23T13:35:13.990Z,20.50
2017-08-23T13:40:17.038Z,20.60
2017-08-23T13:42:56.204Z,20.60
2017-08-23T13:45:26.338Z,20.60
2017-08-23T13:47:56.665Z,20.70
2017-08-23T13:50:25.054Z,20.80
2017-08-23T13:52:53.276Z,20.80
2017-08-23T13:55:24.674Z,20.90
2017-08-23T13:57:52.792Z,20.90
2017-08-23T14:00:20.912Z,21.00
2017-08-23T14:02:49.157Z,20.90
2017-08-23T14:05:20.336Z,20.90
2017-08-23T14:07:50.498Z,21.00
2017-08-23T14:10:19.657Z,21.00
2017-08-23T14:12:47.850Z,21.00
2017-08-23T14:15:16.023Z,21.00
2017-08-23T14:23:29.218Z,21.00
2017-08-23T14:28:57.123Z,20.90
2017-08-23T14:31:26.473Z,20.90
2017-08-23T14:34:05.967Z,20.90
2017-08-23T14:36:53.635Z,21.00
2017-08-23T14:39:25.915Z,21.00
2017-08-23T14:41:54.430Z,21.00
2017-08-23T15:01:55.965Z,21.10
2017-08-23T15:04:26.790Z,21.10
2017-08-23T15:06:55.314Z,21.10
2017-08-23T15:09:25.446Z,21.10
2017-08-23T15:11:55.344Z,21.20
2017-08-23T15:14:25.070Z,21.20
2017-08-23T15:16:58.394Z,21.20
2017-08-23T15:19:26.567Z,21.20
2017-08-23T15:22:03.243Z,21.30
2017-08-23T15:27:27.227Z,21.40
2017-08-23T15:29:55.935Z,21.50
2017-08-23T15:32:24.867Z,21.50
2017-08-23T15:34:53.960Z,21.60
2017-08-23T15:37:32.231Z,21.70
2017-08-23T15:40:03.694Z,21.70
2017-08-23T15:42:33.315Z,21.70
2017-08-23T15:45:01.707Z,21.70
2017-08-23T15:47:31.801Z,21.70
2017-08-23T15:50:05.392Z,21.70
2017-08-23T15:52:33.649Z,21.70
2017-08-23T15:55:01.892Z,21.70
2017-08-23T15:57:38.230Z,21.70
2017-08-23T16:00:06.466Z,21.70
2017-08-23T16:02:34.638Z,21.60
2017-08-23T16:05:06.433Z,21.70
2017-08-23T16:07:43.128Z,21.70
2017-08-23T16:10:23.462Z,21.70
2017-08-23T16:12:53.771Z,21.70
2017-08-23T16:15:21.963Z,21.70
2017-08-23T16:17:52.216Z,21.60
2017-08-23T16:20:29.369Z,21.60
2017-08-23T16:22:57.535Z,21.60
2017-08-23T16:25:25.694Z,21.50
2017-08-23T16:27:54.056Z,21.50
2017-08-23T16:30:25.345Z,21.40
2017-08-23T16:32:54.821Z,21.40
2017-08-23T16:35:25.989Z,21.40
2017-08-23T16:38:00.780Z,21.40
2017-08-23T16:43:34.302Z,21.30
2017-08-23T16:46:05.126Z,21.20
2017-08-23T16:48:42.323Z,21.20
2017-08-23T16:51:15.333Z,21.20
2017-08-23T16:53:44.660Z,21.30
2017-08-23T16:56:15.133Z,21.30
2017-08-23T16:58:44.221Z,21.30
2017-08-23T17:01:14.089Z,21.40
2017-08-23T17:03:42.571Z,21.30
2017-08-23T17:06:10.853Z,21.30
2017-08-23T17:08:39.093Z,21.20
2017-08-23T17:11:07.894Z,21.20
2017-08-23T17:13:36.128Z,21.20
2017-08-23T17:16:05.226Z,21.10
2017-08-23T17:18:34.512Z,21.10
2017-08-23T17:21:05.315Z,21.10
2017-08-23T17:23:40.127Z,21.10
2017-08-23T17:26:30.811Z,21.10
2017-08-23T17:29:00.395Z,21.10
2017-08-23T17:31:37.715Z,21.00
2017-08-23T17:34:12.101Z,20.90
2017-08-23T17:36:40.264Z,20.90
2017-08-23T17:39:09.102Z,20.80
2017-08-23T17:41:37.279Z,20.70
2017-08-23T17:44:06.667Z,20.60
2017-08-23T17:46:36.898Z,20.50
2017-08-23T17:49:06.745Z,20.40
2017-08-23T17:51:36.511Z,20.30
2017-08-23T17:54:04.975Z,20.20
2017-08-23T17:56:34.510Z,20.10
2017-08-23T17:59:02.672Z,20.00
2017-08-23T18:01:31.909Z,19.90
2017-08-23T18:04:00.542Z,19.80
2017-08-23T18:06:28.742Z,19.70
2017-08-23T18:09:01.855Z,19.50
2017-08-23T18:11:34.903Z,19.40
2017-08-23T18:14:11.221Z,19.30
2017-08-23T18:16:39.353Z,19.20
2017-08-23T18:19:08.782Z,19.10
2017-08-23T18:21:41.215Z,19.00
2017-08-23T18:24:24.180Z,18.90
2017-08-23T18:26:54.422Z,18.80
2017-08-23T18:29:22.560Z,18.70
2017-08-23T18:31:51.322Z,18.60
2017-08-23T18:34:25.366Z,18.50
2017-08-23T18:36:53.567Z,18.40
2017-08-23T18:42:18.352Z,18.30
2017-08-23T18:50:48.337Z,18.00
2017-08-23T18:53:21.458Z,18.00
2017-08-23T18:55:50.892Z,17.90
2017-08-23T18:58:21.286Z,17.90
2017-08-23T19:00:50.483Z,17.80
2017-08-23T19:03:28.099Z,17.70
2017-08-23T19:11:50.880Z,17.60
2017-08-23T19:17:34.582Z,17.60
2017-08-23T19:20:09.474Z,17.50
2017-08-23T19:22:38.408Z,17.50
2017-08-23T19:27:46.986Z,17.40
2017-08-23T19:30:36.515Z,17.40
2017-08-23T19:36:14.350Z,17.30
2017-08-23T19:38:49.686Z,17.20
2017-08-23T19:44:38.058Z,17.20
2017-08-23T19:49:53.950Z,17.10
2017-08-23T19:52:49.373Z,17.10
2017-08-23T19:55:19.279Z,17.10
2017-08-23T19:57:48.988Z,17.00
2017-08-23T20:00:20.545Z,17.00
2017-08-23T20:02:58.610Z,17.00
2017-08-23T20:08:39.615Z,16.90
2017-08-23T20:14:07.397Z,16.90
2017-08-23T20:16:59.052Z,16.90
2017-08-23T20:19:34.510Z,16.90
2017-08-23T20:22:02.732Z,16.90
2017-08-23T20:24:30.867Z,16.90
2017-08-23T20:27:00.987Z,16.90
2017-08-23T20:29:32.366Z,16.90
2017-08-23T20:32:01.353Z,16.90
2017-08-23T20:34:30.713Z,16.90
2017-08-23T20:39:44.227Z,16.80
2017-08-23T20:42:13.617Z,16.80
2017-08-23T20:44:59.439Z,16.80
2017-08-23T20:47:29.801Z,16.70
2017-08-23T20:49:58.927Z,16.70
2017-08-23T20:52:27.106Z,16.70
2017-08-23T20:54:57.016Z,16.60
2017-08-23T20:57:26.368Z,16.60
2017-08-23T20:59:55.845Z,16.50
2017-08-23T21:02:23.996Z,16.50
2017-08-23T21:04:52.173Z,16.40
2017-08-23T21:07:20.395Z,16.30
2017-08-23T21:09:48.608Z,16.30
2017-08-23T21:12:16.813Z,16.30
2017-08-23T21:14:48.905Z,16.20
2017-08-23T21:17:18.001Z,16.20
2017-08-23T21:19:46.175Z,16.20
2017-08-23T21:22:14.402Z,16.20
2017-08-23T21:24:42.498Z,16.10
2017-08-23T21:27:11.443Z,16.10
2017-08-23T21:29:39.618Z,16.00
2017-08-23T21:32:07.747Z,16.00
2017-08-23T21:34:48.523Z,15.90
2017-08-23T21:37:22.000Z,15.90
2017-08-23T21:39:57.904Z,15.90
2017-08-23T21:42:37.609Z,15.90
2017-08-23T21:45:06.166Z,15.90
2017-08-23T21:47:34.300Z,15.90
2017-08-23T21:50:02.463Z,15.90
2017-08-23T21:52:34.508Z,15.90
2017-08-23T21:55:02.727Z,15.90
2017-08-23T21:57:35.143Z,15.90
2017-08-23T22:00:18.159Z,15.90
2017-08-23T22:02:51.351Z,15.90
2017-08-23T22:05:21.315Z,16.00
2017-08-23T22:14:17.111Z,16.00
2017-08-23T22:16:45.273Z,16.00
2017-08-23T22:19:13.418Z,16.00
2017-08-23T22:21:43.453Z,16.00
2017-08-23T22:24:13.518Z,16.00
2017-08-23T22:26:41.644Z,16.00
2017-08-23T22:29:09.893Z,16.00
2017-08-23T22:31:41.474Z,16.00
2017-08-23T22:37:14.297Z,15.90
2017-08-23T22:39:42.442Z,15.90
2017-08-23T22:42:10.607Z,15.90
2017-08-23T22:44:41.873Z,15.80
2017-08-23T22:47:10.033Z,15.80
2017-08-23T22:49:41.274Z,15.80
2017-08-23T22:52:09.355Z,15.70
2017-08-23T22:54:37.508Z,15.70
2017-08-23T22:57:05.654Z,15.60
2017-08-23T22:59:33.819Z,15.60
2017-08-23T23:02:01.980Z,15.50
2017-08-23T23:04:37.215Z,15.40
2017-08-23T23:07:05.381Z,15.40
2017-08-23T23:09:33.560Z,15.40
2017-08-23T23:12:24.798Z,15.30
2017-08-23T23:14:53.774Z,15.30
2017-08-23T23:17:23.853Z,15.30
2017-08-23T23:19:53.521Z,15.20
2017-08-23T23:22:21.706Z,15.20
2017-08-23T23:24:50.032Z,15.10
2017-08-23T23:27:18.193Z,15.10
2017-08-23T23:29:46.381Z,15.10
2017-08-23T23:32:14.579Z,15.10
2017-08-23T23:34:42.686Z,15.10
2017-08-23T23:37:11.750Z,15.10
2017-08-23T23:39:39.894Z,15.10
2017-08-23T23:42:08.191Z,15.10
2017-08-23T23:44:36.365Z,15.10
2017-08-23T23:47:10.369Z,15.10
2017-08-23T23:49:38.610Z,15.20
2017-08-23T23:52:06.820Z,15.20
2017-08-23T23:54:35.021Z,15.30
2017-08-23T23:57:17.690Z,15.30
2017-08-23T23:59:45.886Z,15.30
